Michigan — WDF5344 — position and weather

sailwx.info

Track history (hours):
 
Tides and Currents Weather Stations Pressure Air Temp Water Temp Dewpoint Dewpoint Depression Visibility Wind Speed Wind Dir Waves Ship Positions

Michigan

Owner: GATX Third Aircraft Corporation, San Francisco, CA. More information available from US FCC via Universal Licensing System and Coast Guard Vessel Documentation Center.

Last reported at 2015-Aug-01 10:32 UTC. Time now 2015-Aug-02 02:15 UTC.
Position N 43°04' W 079°13'.

Length 144 m.

Type: Ship (hazmat cat D). MMSI: 303583000.

Date/timePositionNaut miles runAvg speedWind from/ knotsBaromVisibWave heightAir tempDewpointWater temp
2015-Aug-01 10:32N 43°04' W 079°13'3 3.3
2015-Aug-01 09:34N 43°07' W 079°12'1 0.6
2015-Aug-01 08:34N 43°08' W 079°12'0 0.1
2015-Aug-01 07:33N 43°08' W 079°12'1 1.1
2015-Aug-01 06:34N 43°09' W 079°12'1 1.1
2015-Aug-01 05:34N 43°10' W 079°12'2 1.7
2015-Aug-01 04:34N 43°12' W 079°12'1 1.2
2015-Aug-01 03:34N 43°13' W 079°13'0 0.3
2015-Aug-01 02:34N 43°13' W 079°13'4 4.3
2015-Aug-01 01:33N 43°18' W 079°11'10 9.7
2015-Aug-01 00:33N 43°23' W 079°00'1010.2
2015-Jul-31 23:32N 43°27' W 078°47'11410.4
2015-Jul-31 12:34N 44°09' W 076°20'124 6.9
2015-Jul-30 18:34N 45°18' W 073°56'1 0.8
2015-Jul-30 17:34N 45°19' W 073°55'2 1.8
2015-Jul-30 16:33N 45°20' W 073°53'9 8.8
2015-Jul-30 15:33N 45°25' W 073°42'6 6.0
2015-Jul-30 14:34N 45°24' W 073°34'4 3.1
2015-Jul-30 13:24N 45°27' W 073°30'3 2.9
2015-Jul-30 12:21N 45°30' W 073°31'19 0.7
2015-Jul-29 10:00N 45°48' W 073°24'13211.0 210 / 61032.5 21.1
2015-Jul-28 22:00N 43°36' W 073°24'0 0.0 270 / 121032.8 29.9
2015-Jul-28 11:00N 43°36' W 073°24'12010.0 210 / 41032.8 19.4
2015-Jul-27 23:00N 45°36' W 073°12'15 1.1 160 / 91032.5 22.7
2015-Jul-27 09:33N 45°29' W 073°31'5 2.7
2015-Jul-27 07:33N 45°24' W 073°35'6 6.2
2015-Jul-27 06:33N 45°24' W 073°44'9 9.1
2015-Jul-27 05:33N 45°20' W 073°55'1 1.4
2015-Jul-27 04:33N 45°18' W 073°56'1 1.4
2015-Jul-27 03:33N 45°17' W 073°57'9 8.7
2015-Jul-27 02:33N 45°14' W 074°08'113 8.7
2015-Jul-26 13:33N 44°10' W 076°19'30 8.4
2015-Jul-26 10:00N 43°48' W 076°48'9711.1 240 / 61023.3 0.519.4
2015-Jul-26 01:14N 43°22' W 078°57'710.4
2015-Jul-26 00:33N 43°19' W 079°07'8 7.8
2015-Jul-25 23:34N 43°13' W 079°13'2 1.6
2015-Jul-25 22:34N 43°12' W 079°12'2 2.2
2015-Jul-25 21:34N 43°09' W 079°12'0 0.5
2015-Jul-25 20:34N 43°09' W 079°12'1 0.7
2015-Jul-25 19:33N 43°08' W 079°12'0 0.3
2015-Jul-25 18:34N 43°08' W 079°12'1 0.5
2015-Jul-25 17:34N 43°07' W 079°12'31 5.2
2015-Jul-25 11:33N 42°40' W 079°33'1010.5
2015-Jul-25 10:33N 42°34' W 079°44'1110.5
2015-Jul-25 09:33N 42°28' W 079°56'1010.4
2015-Jul-25 08:33N 42°24' W 080°09'1110.5
2015-Jul-25 07:33N 42°20' W 080°22'1010.4
2015-Jul-25 06:33N 42°17' W 080°36'256 6.8
2015-Jul-23 17:03N 45°40' W 084°13'5 9.9
2015-Jul-23 16:33N 45°41' W 084°20'10 9.7
2015-Jul-23 15:33N 45°44' W 084°33'10 9.9
2015-Jul-23 14:33N 45°49' W 084°45'1010.2
2015-Jul-23 13:33N 45°50' W 084°60'1010.2
2015-Jul-23 12:33N 45°52' W 085°14'1010.1
2015-Jul-23 11:33N 45°53' W 085°29'10 9.9
2015-Jul-23 10:33N 45°51' W 085°43'1010.3
2015-Jul-23 09:33N 45°46' W 085°56'1010.3
2015-Jul-23 08:33N 45°41' W 086°09'1110.5
2015-Jul-23 07:33N 45°36' W 086°22'1010.4
2015-Jul-23 06:33N 45°30' W 086°34'  
Track history (hours):
 
Tides and Currents Weather Stations Pressure Air Temp Water Temp Dewpoint Dewpoint Depression Visibility Wind Speed Wind Dir Waves Ship Positions

Michigan

Owner: GATX Third Aircraft Corporation, San Francisco, CA. More information available from US FCC via Universal Licensing System and Coast Guard Vessel Documentation Center.

Last reported at 2015-Aug-01 10:32 UTC. Time now 2015-Aug-02 02:15 UTC.
Position N 43°04' W 079°13'.

Length 144 m.

Type: Ship (hazmat cat D). MMSI: 303583000.

Date/timePositionNaut miles runAvg speedWind from/ knotsBaromVisibWave heightAir tempDewpointWater temp
2015-Aug-01 10:32N 43°04' W 079°13'3 3.3
2015-Aug-01 09:34N 43°07' W 079°12'1 0.6
2015-Aug-01 08:34N 43°08' W 079°12'0 0.1
2015-Aug-01 07:33N 43°08' W 079°12'1 1.1
2015-Aug-01 06:34N 43°09' W 079°12'1 1.1
2015-Aug-01 05:34N 43°10' W 079°12'2 1.7
2015-Aug-01 04:34N 43°12' W 079°12'1 1.2
2015-Aug-01 03:34N 43°13' W 079°13'0 0.3
2015-Aug-01 02:34N 43°13' W 079°13'4 4.3
2015-Aug-01 01:33N 43°18' W 079°11'10 9.7
2015-Aug-01 00:33N 43°23' W 079°00'1010.2
2015-Jul-31 23:32N 43°27' W 078°47'11410.4
2015-Jul-31 12:34N 44°09' W 076°20'124 6.9
2015-Jul-30 18:34N 45°18' W 073°56'1 0.8
2015-Jul-30 17:34N 45°19' W 073°55'2 1.8
2015-Jul-30 16:33N 45°20' W 073°53'9 8.8
2015-Jul-30 15:33N 45°25' W 073°42'6 6.0
2015-Jul-30 14:34N 45°24' W 073°34'4 3.1
2015-Jul-30 13:24N 45°27' W 073°30'3 2.9
2015-Jul-30 12:21N 45°30' W 073°31'19 0.7
2015-Jul-29 10:00N 45°48' W 073°24'13211.0 210 / 61032.5 21.1
2015-Jul-28 22:00N 43°36' W 073°24'0 0.0 270 / 121032.8 29.9
2015-Jul-28 11:00N 43°36' W 073°24'12010.0 210 / 41032.8 19.4
2015-Jul-27 23:00N 45°36' W 073°12'15 1.1 160 / 91032.5 22.7
2015-Jul-27 09:33N 45°29' W 073°31'5 2.7
2015-Jul-27 07:33N 45°24' W 073°35'6 6.2
2015-Jul-27 06:33N 45°24' W 073°44'9 9.1
2015-Jul-27 05:33N 45°20' W 073°55'1 1.4
2015-Jul-27 04:33N 45°18' W 073°56'1 1.4
2015-Jul-27 03:33N 45°17' W 073°57'9 8.7
2015-Jul-27 02:33N 45°14' W 074°08'113 8.7
2015-Jul-26 13:33N 44°10' W 076°19'30 8.4
2015-Jul-26 10:00N 43°48' W 076°48'9711.1 240 / 61023.3 0.519.4
2015-Jul-26 01:14N 43°22' W 078°57'710.4
2015-Jul-26 00:33N 43°19' W 079°07'8 7.8
2015-Jul-25 23:34N 43°13' W 079°13'2 1.6
2015-Jul-25 22:34N 43°12' W 079°12'2 2.2
2015-Jul-25 21:34N 43°09' W 079°12'0 0.5
2015-Jul-25 20:34N 43°09' W 079°12'1 0.7
2015-Jul-25 19:33N 43°08' W 079°12'0 0.3
2015-Jul-25 18:34N 43°08' W 079°12'1 0.5
2015-Jul-25 17:34N 43°07' W 079°12'31 5.2
2015-Jul-25 11:33N 42°40' W 079°33'1010.5
2015-Jul-25 10:33N 42°34' W 079°44'1110.5
2015-Jul-25 09:33N 42°28' W 079°56'1010.4
2015-Jul-25 08:33N 42°24' W 080°09'1110.5
2015-Jul-25 07:33N 42°20' W 080°22'1010.4
2015-Jul-25 06:33N 42°17' W 080°36'256 6.8
2015-Jul-23 17:03N 45°40' W 084°13'5 9.9
2015-Jul-23 16:33N 45°41' W 084°20'10 9.7
2015-Jul-23 15:33N 45°44' W 084°33'10 9.9
2015-Jul-23 14:33N 45°49' W 084°45'1010.2
2015-Jul-23 13:33N 45°50' W 084°60'1010.2
2015-Jul-23 12:33N 45°52' W 085°14'1010.1
2015-Jul-23 11:33N 45°53' W 085°29'10 9.9
2015-Jul-23 10:33N 45°51' W 085°43'1010.3
2015-Jul-23 09:33N 45°46' W 085°56'1010.3
2015-Jul-23 08:33N 45°41' W 086°09'1110.5
2015-Jul-23 07:33N 45°36' W 086°22'1010.4
2015-Jul-23 06:33N 45°30' W 086°34'  

Dump ship's entire track history